FDX137 CYXE-CYWG
Flight info
| Callsign | FDX137 |
|---|---|
| Flight time | N/A |
| Altitude | 33000 |
| Route | ATURU DCT YOUNG Q908 KOBID AMBIL5 |
| Aircraft | A306/H-SDE3FGHIRWY/LB1 |
Departure
| Time | N/A |
|---|---|
| Airport | Saskatoon John G. Diefenbaker International Airport (CYXE) |
Arrival
| Time | 2026-04-27 22:25 |
|---|---|
| Airport | Winnipeg / James Armstrong Richardson International Airport (CYWG) |
| Time | Latitude | Longitude | Altitude | Speed | Heading |
|---|---|---|---|---|---|
| 2026-04-27 22:25 | 49.90993 | -97.23447 | 792 ft | 21 kts | 155° |
| 2026-04-27 22:25 | 49.90885 | -97.23368 | 792 ft | 14 kts | 155° |
| 2026-04-27 22:25 | 49.90778 | -97.23293 | 796 ft | 19 kts | 157° |
| 2026-04-27 22:25 | 49.90643 | -97.23305 | 792 ft | 21 kts | 199° |
| 2026-04-27 22:26 | 49.90504 | -97.23381 | 792 ft | 21 kts | 197° |
| 2026-04-27 22:26 | 49.90385 | -97.23445 | 792 ft | 17 kts | 200° |
| 2026-04-27 22:26 | 49.90285 | -97.23418 | 792 ft | 17 kts | 143° |
| 2026-04-27 22:26 | 49.90195 | -97.23301 | 793 ft | 13 kts | 130° |
| 2026-04-27 22:27 | 49.90121 | -97.23190 | 792 ft | 12 kts | 139° |
| 2026-04-27 22:27 | 49.90049 | -97.23094 | 792 ft | 16 kts | 140° |
| 2026-04-27 22:27 | 49.89955 | -97.22970 | 792 ft | 18 kts | 139° |
| 2026-04-27 22:27 | 49.89868 | -97.22830 | 792 ft | 18 kts | 130° |
| 2026-04-27 22:28 | 49.89782 | -97.22675 | 792 ft | 20 kts | 130° |
| 2026-04-27 22:28 | 49.89694 | -97.22515 | 792 ft | 18 kts | 131° |
| 2026-04-27 22:28 | 49.89657 | -97.22360 | 792 ft | 7 kts | 92° |
| 2026-04-27 22:28 | 49.89655 | -97.22259 | 792 ft | 12 kts | 91° |
| 2026-04-27 22:29 | 49.89648 | -97.22128 | 792 ft | 8 kts | 94° |
| 2026-04-27 22:29 | 49.89658 | -97.22054 | 792 ft | 6 kts | 45° |
| 2026-04-27 22:29 | 49.89693 | -97.22038 | 792 ft | 6 kts | 2° |
| 2026-04-27 22:29 | 49.89712 | -97.22037 | 792 ft | 0 kts | 2° |